首页
METAR-TAF:

METAR-TAF

机场 :

Havre City-County Airport

哈佛, 蒙大拿州, 美国

纬度: 48-32-34N, 经度: 109-45-48W, 海拔: 789米

当前天气观测

该预报发布于35分钟前的14:53 UTC
风速7节,风向西南
温度 -1°C
湿度 86%
气压 1016 hPa
能見度: 16.1公里
天空无云

METAR: KHVR 071453Z AUTO 23007KT 10SM CLR M01/M03 A2999 RMK AO2 SLP173 T10061033 53009

时间: 08:28 (15:28 UTC)

预报

该预报发布于4小时和8分钟前的11:20 UTC
预报有效从07日的 12点(UTC)到 08日的 12点(UTC)
风速10节,风向西南
能見度: 10公里
散云层高于15000英尺
从 07日的 1800点(UTC)
风速14节,风向西转西南
能見度: 10公里
散云层高于18000英尺
从 07日的 2300点(UTC)
风速12节,风向西南
能見度: 10公里
少量云层高于25000英尺
从 08日的 0200点(UTC)
风速8节,风向南转西南
能見度: 10公里
少量云层高于25000英尺

TAF: KHVR 071120Z 0712/0812 23010KT P6SM SCT150 FM071800 24014KT P6SM SCT180 FM072300 23012KT P6SM FEW250 FM080200 21008KT P6SM FEW250

超过4000个机场的气象观测和天气预报(METAR&TAF报告)。

可查询的气象台以黄色和红色小点在地图上表示。

将鼠标移到小点上方,可查看气象台名称。

然后点击查看天气观测和预报。

如需切换地图:点击带黑十字的绿色按钮放大地图;点击带横线的绿色按钮缩小地图;或者点击绿色箭头查看邻近地区的地图。


METAR-TAF: